Time;durP1;ratioP1;P1;durP2;ratioP2;P2;SDS_P1;SDS_P2;PMS_P1;PMS_P2;Temp;Humidity;BMP_temperature;BMP_pressure;BME280_temperature;BME280_humidity;BME280_pressure;Samples;Min_cycle;Max_cycle;Signal;HPM_P1;HPM_P2
2021/04/08 00:02:08;;;;;;;12.27;2.67;;;3.20;99.90;;;;;;3558300;40;20060;-64
2021/04/08 00:04:33;;;;;;;15.38;4.05;;;3.30;99.90;;;;;;3563933;40;20450;-64
2021/04/08 00:06:59;;;;;;;15.32;2.53;;;3.30;99.90;;;;;;3566081;40;20689;-64
2021/04/08 00:09:25;;;;;;;16.90;2.47;;;3.30;99.90;;;;;;3565259;40;20030;-65
2021/04/08 00:11:51;;;;;;;13.38;2.30;;;3.30;99.90;;;;;;3562160;40;20578;-64
2021/04/08 00:14:17;;;;;;;11.68;2.35;;;3.30;99.90;;;;;;3559735;40;20319;-64
2021/04/08 00:16:43;;;;;;;10.27;2.60;;;3.20;99.90;;;;;;3557959;40;20408;-64
2021/04/08 00:19:10;;;;;;;15.57;3.00;;;3.20;99.90;;;;;;3561508;40;20046;-64
2021/04/08 00:21:35;;;;;;;12.35;2.72;;;3.20;99.90;;;;;;3564082;40;20037;-64
2021/04/08 00:24:02;;;;;;;11.18;2.85;;;3.20;99.90;;;;;;3566018;40;20547;-64
2021/04/08 00:26:27;;;;;;;16.20;2.60;;;3.20;99.90;;;;;;3563556;40;20045;-64
2021/04/08 00:28:53;;;;;;;15.25;2.33;;;3.10;99.90;;;;;;3561560;40;20401;-64
2021/04/08 00:31:19;;;;;;;12.23;2.28;;;3.10;99.90;;;;;;3557249;40;20044;-64
2021/04/08 00:33:44;;;;;;;11.60;2.30;;;3.00;99.90;;;;;;3559362;40;20131;-65
2021/04/08 00:36:10;;;;;;;16.92;2.92;;;3.00;99.90;;;;;;3561600;40;20077;-64
2021/04/08 00:38:36;;;;;;;21.25;2.70;;;3.00;99.90;;;;;;3565108;40;20080;-64
2021/04/08 00:41:02;;;;;;;17.00;3.40;;;3.00;99.90;;;;;;3565790;40;20072;-64
2021/04/08 00:43:28;;;;;;;10.73;2.50;;;3.00;99.90;;;;;;3563660;40;20041;-63
2021/04/08 00:45:54;;;;;;;13.02;3.75;;;3.10;99.90;;;;;;3559982;40;20085;-64
2021/04/08 00:48:20;;;;;;;14.40;2.80;;;3.10;99.90;;;;;;3558381;40;20034;-64
2021/04/08 00:50:45;;;;;;;8.13;2.22;;;3.10;99.90;;;;;;3558287;40;20041;-64
2021/04/08 00:53:18;;;;;;;15.18;2.63;;;3.10;99.90;;;;;;3563594;40;20123;-64
2021/04/08 00:55:46;;;;;;;10.68;2.10;;;3.20;99.90;;;;;;3566159;40;20406;-64
2021/04/08 00:58:13;;;;;;;9.70;2.30;;;3.20;99.90;;;;;;3565800;40;20045;-64
2021/04/08 01:00:41;;;;;;;16.00;2.42;;;3.10;99.90;;;;;;3563462;40;20039;-65
2021/04/08 01:03:07;;;;;;;11.00;2.40;;;3.20;99.90;;;;;;3565197;40;20044;-64
2021/04/08 01:05:33;;;;;;;10.93;2.15;;;3.10;99.90;;;;;;3567127;40;20038;-64
2021/04/08 01:08:00;;;;;;;9.57;2.50;;;3.20;99.90;;;;;;3565063;40;20039;-65
2021/04/08 01:10:27;;;;;;;11.35;2.25;;;3.20;99.90;;;;;;3561874;40;20041;-64
2021/04/08 01:13:14;;;;;;;8.52;2.22;;;3.20;99.90;;;;;;3560331;40;20049;-64
2021/04/08 01:15:40;;;;;;;11.35;2.53;;;3.20;99.90;;;;;;3562188;40;20415;-64
2021/04/08 01:18:44;;;;;;;10.98;2.30;;;3.20;99.90;;;;;;3563639;40;20045;-64
2021/04/08 01:21:28;;;;;;;13.40;2.28;;;3.20;99.90;;;;;;3560174;40;20041;-65
2021/04/08 01:24:09;;;;;;;15.90;2.35;;;3.20;99.90;;;;;;3565307;40;20052;-64
2021/04/08 01:27:03;;;;;;;14.32;2.58;;;3.10;99.90;;;;;;3563837;40;20513;-64
2021/04/08 01:29:34;;;;;;;17.08;2.53;;;3.20;99.90;;;;;;3565839;40;20068;-64
2021/04/08 01:32:04;;;;;;;13.15;2.33;;;3.20;99.90;;;;;;3562584;40;20037;-64
2021/04/08 01:34:32;;;;;;;20.20;2.70;;;3.20;99.90;;;;;;3563639;40;20048;-64
2021/04/08 01:37:03;;;;;;;14.43;2.72;;;3.30;99.90;;;;;;3567275;40;20044;-64
2021/04/08 01:39:30;;;;;;;16.83;3.17;;;3.30;99.90;;;;;;3567340;40;20081;-64
2021/04/08 01:41:57;;;;;;;11.93;2.40;;;3.20;99.90;;;;;;3564191;40;20040;-64
2021/04/08 01:44:25;;;;;;;9.05;2.53;;;3.20;99.90;;;;;;3561059;40;20654;-64
2021/04/08 01:47:04;;;;;;;13.43;3.30;;;3.30;99.90;;;;;;3559552;40;20143;-64
2021/04/08 01:49:33;;;;;;;14.85;3.25;;;3.20;99.90;;;;;;3563464;40;20044;-64
2021/04/08 01:52:01;;;;;;;11.30;2.50;;;3.20;99.90;;;;;;3566062;40;20037;-64
2021/04/08 01:54:30;;;;;;;14.80;2.85;;;3.20;99.90;;;;;;3568636;40;20104;-64
2021/04/08 01:57:02;;;;;;;11.75;2.50;;;3.20;99.90;;;;;;3562406;40;20044;-64
2021/04/08 01:59:28;;;;;;;13.50;2.70;;;3.20;99.90;;;;;;3563363;40;20377;-64
2021/04/08 02:01:57;;;;;;;15.13;2.20;;;3.20;99.90;;;;;;3559433;40;20090;-64
2021/04/08 02:04:25;;;;;;;17.23;3.00;;;3.20;99.90;;;;;;3566483;40;20032;-64
2021/04/08 02:06:51;;;;;;;15.45;2.65;;;3.20;99.90;;;;;;3563134;40;20903;-64
2021/04/08 02:09:19;;;;;;;16.42;3.25;;;3.20;99.90;;;;;;3566256;40;20808;-64
2021/04/08 02:11:47;;;;;;;10.90;2.42;;;3.30;99.90;;;;;;3567756;40;20052;-64
2021/04/08 02:14:15;;;;;;;15.57;2.78;;;3.30;99.90;;;;;;3565677;40;20026;-64
2021/04/08 02:16:47;;;;;;;13.30;2.55;;;3.30;99.90;;;;;;3562163;40;20060;-64
2021/04/08 02:19:14;;;;;;;14.65;2.95;;;3.30;99.90;;;;;;3560246;40;20402;-64
2021/04/08 02:21:41;;;;;;;10.85;1.95;;;3.20;99.90;;;;;;3560713;40;20335;-64
2021/04/08 02:24:11;;;;;;;15.07;2.40;;;3.20;99.90;;;;;;3562659;40;20630;-64
2021/04/08 02:26:40;;;;;;;12.13;2.33;;;3.20;99.90;;;;;;3567462;40;20029;-63
2021/04/08 02:29:06;;;;;;;13.02;2.63;;;3.30;99.90;;;;;;3566412;40;20037;-64
2021/04/08 02:31:35;;;;;;;12.30;2.53;;;3.30;99.90;;;;;;3563424;40;20057;-64
2021/04/08 02:34:01;;;;;;;11.82;2.70;;;3.30;99.90;;;;;;3559128;40;20036;-64
2021/04/08 02:36:27;;;;;;;9.60;2.20;;;3.20;99.90;;;;;;3559920;40;20030;-64
2021/04/08 02:38:53;;;;;;;9.63;2.15;;;3.20;99.90;;;;;;3561098;40;20025;-64
2021/04/08 02:41:19;;;;;;;9.65;2.47;;;3.20;99.90;;;;;;3566104;40;20045;-64
2021/04/08 02:43:45;;;;;;;8.77;1.70;;;3.10;99.90;;;;;;3568100;40;20056;-64
2021/04/08 02:46:10;;;;;;;10.20;1.85;;;3.10;99.90;;;;;;3564055;40;20105;-64
2021/04/08 02:48:36;;;;;;;18.05;2.17;;;3.20;99.90;;;;;;3562390;40;20048;-64
2021/04/08 02:51:07;;;;;;;12.23;2.60;;;3.20;99.90;;;;;;3559180;40;20049;-64
2021/04/08 02:53:54;;;;;;;12.07;2.28;;;3.20;99.90;;;;;;3559963;40;20030;-64
2021/04/08 02:56:45;;;;;;;14.65;2.08;;;3.20;99.90;;;;;;3562613;40;20043;-64
2021/04/08 02:59:23;;;;;;;8.82;1.83;;;3.10;99.90;;;;;;3566029;40;20040;-64
2021/04/08 03:01:55;;;;;;;7.82;1.67;;;3.20;99.90;;;;;;3564014;40;20088;-64
2021/04/08 03:04:22;;;;;;;8.98;2.00;;;3.10;99.90;;;;;;3564264;40;20404;-64
2021/04/08 03:06:53;;;;;;;9.15;2.38;;;3.10;99.90;;;;;;3560171;40;20030;-63
2021/04/08 03:09:35;;;;;;;6.63;2.20;;;3.00;99.90;;;;;;3558951;40;20037;-64
2021/04/08 03:12:05;;;;;;;10.70;2.60;;;3.10;99.90;;;;;;3562142;40;20040;-64
2021/04/08 03:14:37;;;;;;;13.20;2.40;;;3.10;99.90;;;;;;3564791;40;20106;-64
2021/04/08 03:17:05;;;;;;;10.48;2.47;;;3.00;99.90;;;;;;3567316;40;20053;-64
2021/04/08 03:19:32;;;;;;;11.45;2.53;;;3.00;99.90;;;;;;3564666;40;20041;-64
2021/04/08 03:21:59;;;;;;;15.80;3.03;;;3.00;99.90;;;;;;3561373;40;20049;-65
2021/04/08 03:24:27;;;;;;;11.13;2.47;;;3.10;99.90;;;;;;3558935;40;20830;-65
2021/04/08 03:26:55;;;;;;;12.60;2.58;;;3.00;99.90;;;;;;3566071;40;20040;-65
2021/04/08 03:29:21;;;;;;;17.17;2.63;;;3.00;99.90;;;;;;3561645;40;20067;-64
2021/04/08 03:31:47;;;;;;;14.70;3.42;;;3.00;99.90;;;;;;3565697;40;20057;-64
2021/04/08 03:34:14;;;;;;;17.58;2.55;;;3.00;99.90;;;;;;3571100;40;20052;-64
2021/04/08 03:36:40;;;;;;;10.82;2.47;;;3.10;99.90;;;;;;3567197;40;20060;-64
2021/04/08 03:39:07;;;;;;;16.52;2.50;;;3.10;99.90;;;;;;3564226;40;20671;-64
2021/04/08 03:41:42;;;;;;;15.90;3.60;;;3.10;99.90;;;;;;3563344;40;20862;-64
2021/04/08 03:44:11;;;;;;;20.03;3.70;;;3.00;99.90;;;;;;3563241;40;20170;-64
2021/04/08 03:46:42;;;;;;;15.98;3.50;;;3.10;99.90;;;;;;3566538;40;20024;-64
2021/04/08 03:49:10;;;;;;;14.20;2.92;;;3.00;99.90;;;;;;3569970;40;20044;-65
2021/04/08 03:51:37;;;;;;;18.15;3.28;;;3.00;99.90;;;;;;3564371;40;20033;-65
2021/04/08 03:54:12;;;;;;;12.45;2.63;;;2.90;99.90;;;;;;3564947;40;20084;-64
2021/04/08 03:56:42;;;;;;;11.43;2.30;;;3.00;99.90;;;;;;3565679;40;20053;-64
2021/04/08 03:59:09;;;;;;;16.10;2.80;;;3.00;99.90;;;;;;3567034;40;20056;-65
2021/04/08 04:01:37;;;;;;;28.42;3.63;;;3.00;99.90;;;;;;3569214;40;20064;-65
2021/04/08 04:04:05;;;;;;;19.10;4.07;;;3.00;99.90;;;;;;3565312;40;20100;-65
2021/04/08 04:06:32;;;;;;;22.00;4.03;;;3.00;99.90;;;;;;3565396;40;20451;-65
2021/04/08 04:08:58;;;;;;;12.02;2.70;;;3.00;99.90;;;;;;3563626;40;20037;-65
2021/04/08 04:11:24;;;;;;;19.38;3.90;;;3.00;99.90;;;;;;3565942;40;20049;-65
2021/04/08 04:13:51;;;;;;;13.65;3.35;;;2.90;99.90;;;;;;3557989;40;20057;-64
2021/04/08 04:16:19;;;;;;;19.70;3.35;;;2.90;99.90;;;;;;3563845;40;20058;-64
2021/04/08 04:18:44;;;;;;;18.60;3.40;;;2.90;99.90;;;;;;3563587;40;20025;-65
2021/04/08 04:21:10;;;;;;;18.55;3.33;;;3.00;99.90;;;;;;3565749;40;20033;-65
2021/04/08 04:23:37;;;;;;;18.92;3.53;;;3.00;99.90;;;;;;3567198;40;20041;-66
2021/04/08 04:26:03;;;;;;;15.95;2.80;;;3.00;99.90;;;;;;3564167;40;20060;-65
2021/04/08 04:28:29;;;;;;;19.42;3.00;;;3.00;99.90;;;;;;3561536;40;20415;-65
2021/04/08 04:30:54;;;;;;;19.15;3.30;;;3.00;99.90;;;;;;3559218;40;20121;-64
2021/04/08 04:33:20;;;;;;;21.95;5.72;;;3.00;99.90;;;;;;3565593;40;20043;-64
2021/04/08 04:35:46;;;;;;;16.75;4.13;;;2.90;99.90;;;;;;3565339;40;20041;-64
2021/04/08 04:38:11;;;;;;;14.10;3.47;;;3.00;99.90;;;;;;3561852;40;20053;-64
2021/04/08 04:40:37;;;;;;;17.70;2.97;;;2.90;99.90;;;;;;3568145;40;20041;-64
2021/04/08 04:43:03;;;;;;;21.00;3.00;;;2.90;99.90;;;;;;3563748;40;20041;-64
2021/04/08 04:45:28;;;;;;;15.50;3.60;;;2.90;99.90;;;;;;3565836;40;20080;-64
2021/04/08 04:47:54;;;;;;;15.18;3.88;;;2.90;99.90;;;;;;3568529;40;20133;-64
2021/04/08 04:50:20;;;;;;;16.95;3.10;;;2.90;99.90;;;;;;3565716;40;20734;-64
2021/04/08 04:52:45;;;;;;;25.23;3.78;;;2.90;99.90;;;;;;3563520;40;20377;-64
2021/04/08 04:55:11;;;;;;;15.77;2.88;;;2.90;99.90;;;;;;3566919;40;20994;-64
2021/04/08 04:57:37;;;;;;;18.35;2.63;;;2.90;99.90;;;;;;3558303;40;20044;-66
2021/04/08 05:00:06;;;;;;;30.27;4.07;;;3.00;99.90;;;;;;3558252;40;20057;-63
2021/04/08 05:02:32;;;;;;;19.73;2.90;;;3.00;99.90;;;;;;3556135;40;20044;-63
2021/04/08 05:04:58;;;;;;;6.68;2.72;;;3.10;99.90;;;;;;3560342;40;20042;-63
2021/04/08 05:07:24;;;;;;;19.05;3.35;;;3.10;99.90;;;;;;3562140;40;20034;-63
2021/04/08 05:09:49;;;;;;;17.60;3.05;;;3.10;99.90;;;;;;3557621;40;20037;-63
2021/04/08 05:12:15;;;;;;;22.20;3.08;;;3.10;99.90;;;;;;3559466;40;20440;-63
2021/04/08 05:14:41;;;;;;;20.10;2.92;;;3.10;99.90;;;;;;3557782;40;20457;-63
2021/04/08 05:17:06;;;;;;;11.68;2.40;;;3.10;99.90;;;;;;3555617;40;20041;-64
2021/04/08 05:19:32;;;;;;;18.83;3.60;;;3.10;99.90;;;;;;3555280;40;20036;-64
2021/04/08 05:21:58;;;;;;;13.52;2.95;;;3.20;99.90;;;;;;3557991;40;20052;-64
2021/04/08 05:24:24;;;;;;;12.85;2.42;;;3.20;99.90;;;;;;3555050;40;20044;-64
2021/04/08 05:26:50;;;;;;;20.00;3.20;;;3.10;99.90;;;;;;3553817;40;20126;-63
2021/04/08 05:29:15;;;;;;;14.45;2.97;;;3.20;99.90;;;;;;3555533;40;20052;-64
2021/04/08 05:31:41;;;;;;;15.38;2.78;;;3.20;99.90;;;;;;3559859;40;20037;-63
2021/04/08 05:34:07;;;;;;;16.02;2.83;;;3.10;99.90;;;;;;3557914;40;20862;-63
2021/04/08 05:36:33;;;;;;;20.23;3.13;;;3.10;99.90;;;;;;3554616;40;20052;-64
2021/04/08 05:38:58;;;;;;;18.85;2.53;;;3.20;99.90;;;;;;3557215;40;20096;-63
2021/04/08 05:41:24;;;;;;;19.83;3.17;;;3.20;99.90;;;;;;3554623;40;20053;-63
2021/04/08 05:43:50;;;;;;;20.52;4.13;;;3.10;99.90;;;;;;3559580;40;20076;-66
2021/04/08 05:46:15;;;;;;;17.85;3.22;;;3.10;99.90;;;;;;3557258;40;20049;-71
2021/04/08 05:48:41;;;;;;;15.98;2.83;;;3.20;99.90;;;;;;3561595;40;20033;-70
2021/04/08 05:51:07;;;;;;;16.23;3.13;;;3.30;99.90;;;;;;3555287;40;20403;-71
2021/04/08 05:53:33;;;;;;;15.85;3.83;;;3.20;99.90;;;;;;3549949;40;20060;-70
2021/04/08 05:55:59;;;;;;;17.08;3.50;;;3.20;99.90;;;;;;3552968;40;20419;-70
2021/04/08 05:58:25;;;;;;;15.73;3.40;;;3.20;99.90;;;;;;3556043;40;20049;-71
2021/04/08 06:00:50;;;;;;;15.27;2.85;;;3.20;99.90;;;;;;3553280;40;20042;-71
2021/04/08 06:03:16;;;;;;;21.77;4.78;;;3.20;99.90;;;;;;3560248;40;20037;-71
2021/04/08 06:05:42;;;;;;;27.10;4.78;;;3.30;99.90;;;;;;3555023;40;20049;-71
2021/04/08 06:08:08;;;;;;;12.10;2.50;;;3.50;99.90;;;;;;3555765;40;20044;-71
2021/04/08 06:10:34;;;;;;;15.35;3.00;;;3.50;99.90;;;;;;3556272;40;20045;-70
2021/04/08 06:13:00;;;;;;;15.85;4.18;;;3.50;99.90;;;;;;3561764;40;20045;-71
2021/04/08 06:15:29;;;;;;;16.13;2.47;;;3.50;99.90;;;;;;3554530;40;20080;-70
2021/04/08 06:17:55;;;;;;;20.60;2.88;;;3.50;99.90;;;;;;3556822;40;20034;-71
2021/04/08 06:20:20;;;;;;;15.80;2.88;;;3.50;99.90;;;;;;3558941;40;20041;-71
2021/04/08 06:22:46;;;;;;;14.32;3.20;;;3.40;99.90;;;;;;3554887;40;20049;-71
2021/04/08 06:25:12;;;;;;;9.32;1.90;;;3.50;99.90;;;;;;3552520;40;20063;-71
2021/04/08 06:27:38;;;;;;;12.85;3.00;;;3.50;99.90;;;;;;3554346;40;20045;-71
2021/04/08 06:30:05;;;;;;;15.98;2.95;;;3.50;99.90;;;;;;3553017;40;20037;-71
2021/04/08 06:32:30;;;;;;;17.48;2.35;;;3.50;99.90;;;;;;3559186;40;20048;-71
2021/04/08 06:34:57;;;;;;;12.65;2.35;;;3.50;99.90;;;;;;3555423;40;20045;-71
2021/04/08 06:37:22;;;;;;;17.95;2.50;;;3.50;99.90;;;;;;3560364;40;20061;-71
2021/04/08 06:39:48;;;;;;;18.45;3.20;;;3.50;99.90;;;;;;3553883;40;20143;-70
2021/04/08 06:42:18;;;;;;;17.23;3.10;;;3.60;99.90;;;;;;3559221;40;20038;-71
2021/04/08 06:44:51;;;;;;;13.52;2.97;;;3.60;99.90;;;;;;3559883;40;20120;-70
2021/04/08 06:47:23;;;;;;;17.05;2.92;;;3.60;99.90;;;;;;3555862;40;20037;-71
2021/04/08 06:49:53;;;;;;;10.95;2.30;;;3.70;99.90;;;;;;3548914;40;20054;-70
2021/04/08 06:52:21;;;;;;;15.77;3.05;;;3.70;99.90;;;;;;3559782;40;20038;-71
2021/04/08 06:54:48;;;;;;;10.43;2.10;;;3.80;99.90;;;;;;3556552;40;20041;-71
2021/04/08 06:57:19;;;;;;;8.80;2.70;;;3.90;99.90;;;;;;3558697;40;20807;-71
2021/04/08 06:59:48;;;;;;;19.73;3.03;;;4.00;99.90;;;;;;3557741;40;20033;-71
2021/04/08 07:02:19;;;;;;;16.15;3.55;;;4.00;99.90;;;;;;3557170;40;20057;-70
2021/04/08 07:04:45;;;;;;;14.48;2.63;;;4.20;99.90;;;;;;3556688;40;20069;-72
2021/04/08 07:07:13;;;;;;;16.90;2.83;;;4.20;99.90;;;;;;3558528;40;20035;-72
2021/04/08 07:09:38;;;;;;;15.60;2.90;;;4.30;99.90;;;;;;3557070;40;20292;-71
2021/04/08 07:12:04;;;;;;;17.48;3.42;;;4.30;99.90;;;;;;3554146;40;20038;-71
2021/04/08 07:14:31;;;;;;;15.95;3.30;;;4.30;99.90;;;;;;3557315;40;20052;-71
2021/04/08 07:16:56;;;;;;;19.48;3.08;;;4.40;99.90;;;;;;3553375;40;20033;-71
2021/04/08 07:19:22;;;;;;;17.05;2.78;;;4.50;99.90;;;;;;3557543;40;20036;-71
2021/04/08 07:21:48;;;;;;;18.48;3.30;;;4.50;99.90;;;;;;3554828;40;20038;-71
2021/04/08 07:24:18;;;;;;;16.65;2.65;;;4.50;99.90;;;;;;3558363;40;20139;-70
2021/04/08 07:26:53;;;;;;;16.02;2.58;;;4.50;99.90;;;;;;3553366;40;20053;-71
2021/04/08 07:29:20;;;;;;;11.65;2.53;;;4.60;99.90;;;;;;3555744;40;20083;-71
2021/04/08 07:31:46;;;;;;;14.07;3.13;;;4.60;99.90;;;;;;3556224;40;20026;-70
2021/04/08 07:34:12;;;;;;;22.73;4.90;;;4.80;99.90;;;;;;3555430;40;20119;-71
2021/04/08 07:36:39;;;;;;;11.32;2.30;;;5.00;99.90;;;;;;3557530;40;20056;-70
2021/04/08 07:39:18;;;;;;;12.35;2.95;;;5.10;99.90;;;;;;3555998;40;20041;-71
2021/04/08 07:41:57;;;;;;;13.60;3.55;;;5.00;99.90;;;;;;3557530;40;20132;-70
2021/04/08 07:44:23;;;;;;;14.27;5.70;;;4.90;99.90;;;;;;3556919;40;20033;-71
2021/04/08 07:46:48;;;;;;;20.33;3.38;;;4.90;99.90;;;;;;3556938;40;20041;-71
2021/04/08 07:49:31;;;;;;;11.30;2.60;;;5.00;99.90;;;;;;3556260;40;20552;-69
2021/04/08 07:52:13;;;;;;;17.95;3.67;;;5.10;99.90;;;;;;3559390;40;20672;-70
2021/04/08 07:54:39;;;;;;;16.33;2.60;;;5.30;99.90;;;;;;3556552;40;20640;-69
2021/04/08 07:57:05;;;;;;;14.15;2.22;;;5.30;99.90;;;;;;3557173;40;20045;-69
2021/04/08 07:59:31;;;;;;;18.98;3.53;;;5.30;99.90;;;;;;3553600;40;20036;-70
2021/04/08 08:02:01;;;;;;;27.67;9.38;;;5.40;99.90;;;;;;3554864;40;20082;-70
2021/04/08 08:04:28;;;;;;;23.80;6.68;;;5.60;99.90;;;;;;3558302;40;20491;-70
2021/04/08 08:06:55;;;;;;;13.00;3.47;;;5.70;99.90;;;;;;3551072;40;20041;-70
2021/04/08 08:09:25;;;;;;;13.48;2.63;;;5.80;99.90;;;;;;3551374;40;20034;-70
2021/04/08 08:11:53;;;;;;;15.10;2.38;;;5.80;99.90;;;;;;3555655;40;20033;-70
2021/04/08 08:14:40;;;;;;;17.00;2.13;;;6.00;99.90;;;;;;3557135;40;20037;-69
2021/04/08 08:17:07;;;;;;;11.35;1.92;;;6.20;99.90;;;;;;3552221;40;20041;-70
2021/04/08 08:19:34;;;;;;;12.40;2.58;;;6.30;99.90;;;;;;3550816;40;20677;-70
2021/04/08 08:22:02;;;;;;;9.68;2.58;;;6.00;99.90;;;;;;3554501;40;20056;-73
2021/04/08 08:24:28;;;;;;;14.77;2.35;;;5.70;99.90;;;;;;3562427;40;20045;-73
2021/04/08 08:26:54;;;;;;;12.25;2.47;;;5.80;99.90;;;;;;3554616;40;20049;-72
2021/04/08 08:29:28;;;;;;;12.18;2.38;;;6.40;99.90;;;;;;3557700;40;20081;-72
2021/04/08 08:31:58;;;;;;;21.50;5.25;;;6.80;99.90;;;;;;3555670;40;20042;-73
2021/04/08 08:34:30;;;;;;;14.55;2.85;;;7.00;99.90;;;;;;3555184;40;20104;-72
2021/04/08 08:36:58;;;;;;;13.85;3.22;;;6.90;99.10;;;;;;3553023;40;20115;-72
2021/04/08 08:39:26;;;;;;;11.90;1.98;;;6.90;99.80;;;;;;3550685;40;20037;-73
2021/04/08 08:41:53;;;;;;;14.98;2.45;;;6.70;99.80;;;;;;3556279;40;20045;-73
2021/04/08 08:44:20;;;;;;;13.45;2.22;;;6.30;99.90;;;;;;3557227;40;20120;-73
2021/04/08 08:46:53;;;;;;;9.13;2.08;;;6.00;99.90;;;;;;3557889;40;20037;-72
2021/04/08 08:49:21;;;;;;;12.82;2.00;;;6.20;99.90;;;;;;3555375;40;20067;-72
2021/04/08 08:51:49;;;;;;;17.75;2.80;;;6.30;99.90;;;;;;3555863;40;20557;-72
2021/04/08 08:54:16;;;;;;;17.50;2.42;;;6.50;99.90;;;;;;3558439;40;20034;-73
2021/04/08 08:56:41;;;;;;;13.57;2.85;;;6.80;99.30;;;;;;3554513;40;20131;-73
2021/04/08 08:59:08;;;;;;;11.27;2.22;;;6.80;99.30;;;;;;3552900;40;20046;-76
2021/04/08 09:01:35;;;;;;;14.65;2.47;;;6.90;98.20;;;;;;3557139;40;20109;-73
2021/04/08 09:04:02;;;;;;;11.60;1.85;;;7.00;97.80;;;;;;3557203;40;20041;-74
2021/04/08 09:06:29;;;;;;;7.05;1.95;;;7.10;98.10;;;;;;3553961;40;20151;-73
2021/04/08 09:09:01;;;;;;;17.38;4.57;;;7.50;97.30;;;;;;3551992;40;20045;-74
2021/04/08 09:11:31;;;;;;;9.35;1.95;;;7.60;97.20;;;;;;3558852;40;20053;-73
2021/04/08 09:13:58;;;;;;;10.15;2.30;;;7.20;97.50;;;;;;3555433;40;20394;-73
2021/04/08 09:16:24;;;;;;;11.55;2.00;;;7.00;97.70;;;;;;3550873;40;20115;-73
2021/04/08 09:19:09;;;;;;;9.68;1.92;;;7.00;97.70;;;;;;3550477;40;20048;-74
2021/04/08 09:21:47;;;;;;;13.50;2.30;;;7.70;97.40;;;;;;3555186;40;20133;-73
2021/04/08 09:24:17;;;;;;;15.98;3.42;;;7.70;95.70;;;;;;3556133;40;20037;-73
2021/04/08 09:26:45;;;;;;;7.65;1.95;;;7.60;95.50;;;;;;3551023;40;20119;-73
2021/04/08 09:29:15;;;;;;;12.00;2.60;;;7.50;96.10;;;;;;3552112;40;20036;-73
2021/04/08 09:31:41;;;;;;;12.43;1.70;;;7.40;96.00;;;;;;3554012;40;20037;-73
2021/04/08 09:34:07;;;;;;;12.70;2.17;;;7.30;96.70;;;;;;3557672;40;20112;-73
2021/04/08 09:36:34;;;;;;;10.98;2.13;;;7.40;96.90;;;;;;3556036;40;20042;-73
2021/04/08 09:39:00;;;;;;;10.38;2.40;;;7.50;95.70;;;;;;3558246;40;20029;-73
2021/04/08 09:41:44;;;;;;;14.82;2.30;;;7.80;96.20;;;;;;3553223;40;20042;-73
2021/04/08 09:44:11;;;;;;;7.82;1.67;;;8.40;95.90;;;;;;3559753;40;20139;-73
2021/04/08 09:46:43;;;;;;;8.02;1.42;;;8.90;93.10;;;;;;3560954;40;20540;-73
2021/04/08 09:49:10;;;;;;;8.50;1.80;;;8.50;92.50;;;;;;3552501;40;20048;-73
2021/04/08 09:51:45;;;;;;;10.45;2.03;;;7.90;92.70;;;;;;3556364;40;20803;-73
2021/04/08 09:54:16;;;;;;;9.07;2.63;;;7.80;93.00;;;;;;3556944;40;20074;-73
2021/04/08 09:56:48;;;;;;;11.60;2.08;;;8.40;94.90;;;;;;3553230;40;20061;-73
2021/04/08 09:59:15;;;;;;;10.38;1.63;;;8.90;92.10;;;;;;3554283;40;20038;-73
2021/04/08 10:01:41;;;;;;;11.88;1.52;;;8.80;91.80;;;;;;3557924;40;20038;-72
2021/04/08 10:04:16;;;;;;;12.57;2.00;;;8.50;92.10;;;;;;3557725;40;20066;-73
2021/04/08 10:06:43;;;;;;;9.10;2.53;;;8.30;91.90;;;;;;3559847;40;20030;-72
2021/04/08 10:09:10;;;;;;;6.65;1.98;;;8.20;91.80;;;;;;3552115;40;20131;-73
2021/04/08 10:11:37;;;;;;;7.85;2.15;;;7.90;92.00;;;;;;3554342;40;20029;-73
2021/04/08 10:14:30;;;;;;;7.32;2.10;;;7.70;92.50;;;;;;3557808;40;20034;-73
2021/04/08 10:17:08;;;;;;;9.57;1.63;;;7.50;93.10;;;;;;3549125;40;20045;-73
2021/04/08 10:19:37;;;;;;;9.00;2.63;;;7.50;93.20;;;;;;3554914;40;20412;-73
2021/04/08 10:22:03;;;;;;;11.93;1.75;;;7.60;93.30;;;;;;3558404;40;20115;-73
2021/04/08 10:24:37;;;;;;;14.27;1.95;;;7.60;93.60;;;;;;3558964;40;20036;-73
2021/04/08 10:27:15;;;;;;;11.35;1.55;;;7.90;92.50;;;;;;3558987;40;20038;-73
2021/04/08 10:29:41;;;;;;;7.43;1.50;;;8.10;92.30;;;;;;3557386;40;20060;-73
2021/04/08 10:32:07;;;;;;;4.88;1.50;;;8.30;91.30;;;;;;3558375;40;20130;-73
2021/04/08 10:34:35;;;;;;;11.18;2.13;;;8.40;90.90;;;;;;3559830;40;20030;-73
2021/04/08 10:37:02;;;;;;;17.60;3.42;;;8.40;91.00;;;;;;3559294;40;20033;-72
2021/04/08 10:39:33;;;;;;;13.13;1.75;;;8.50;88.60;;;;;;3561205;40;20225;-73
2021/04/08 10:42:01;;;;;;;8.82;1.95;;;8.30;84.90;;;;;;3553110;40;20042;-73
2021/04/08 10:44:38;;;;;;;10.43;1.67;;;8.30;86.50;;;;;;3556415;40;20038;-73
2021/04/08 10:47:10;;;;;;;13.88;1.55;;;8.50;88.90;;;;;;3557472;40;20589;-73
2021/04/08 10:49:38;;;;;;;7.25;1.50;;;8.50;85.70;;;;;;3555220;40;20701;-73
2021/04/08 10:52:07;;;;;;;10.52;1.48;;;8.50;88.40;;;;;;3555281;40;20057;-73
2021/04/08 10:54:34;;;;;;;11.00;1.88;;;8.40;88.90;;;;;;3554571;40;20044;-73
2021/04/08 10:57:01;;;;;;;8.25;1.27;;;8.40;91.70;;;;;;3549373;40;20042;-73
2021/04/08 10:59:28;;;;;;;7.88;1.67;;;8.50;93.00;;;;;;3552063;40;20042;-73
2021/04/08 11:01:55;;;;;;;13.02;2.00;;;8.40;93.50;;;;;;3557429;40;20056;-73
2021/04/08 11:04:22;;;;;;;5.77;1.67;;;8.40;93.40;;;;;;3557499;40;20048;-73
2021/04/08 11:06:49;;;;;;;7.47;1.50;;;8.50;92.80;;;;;;3555197;40;20042;-73
2021/04/08 11:09:25;;;;;;;13.90;1.92;;;8.70;91.60;;;;;;3554175;40;20033;-73
2021/04/08 11:11:52;;;;;;;10.38;1.80;;;9.30;90.40;;;;;;3555445;40;20074;-74
2021/04/08 11:14:27;;;;;;;7.82;1.42;;;9.90;81.90;;;;;;3558159;40;20038;-73
2021/04/08 11:16:56;;;;;;;9.13;1.80;;;9.60;75.40;;;;;;3556222;40;20034;-73
2021/04/08 11:19:23;;;;;;;8.63;1.40;;;9.20;78.10;;;;;;3554579;40;20451;-73
2021/04/08 11:21:50;;;;;;;10.60;2.30;;;8.60;79.40;;;;;;3557165;40;20056;-73
2021/04/08 11:24:16;;;;;;;5.88;1.00;;;8.20;82.20;;;;;;3559512;40;20033;-73
2021/04/08 11:27:00;;;;;;;7.00;1.50;;;8.00;81.90;;;;;;3557991;40;20202;-73
2021/04/08 11:29:27;;;;;;;8.93;1.75;;;8.20;84.10;;;;;;3557138;40;20038;-73
2021/04/08 11:32:10;;;;;;;17.45;4.15;;;8.60;84.70;;;;;;3558380;40;20034;-73
2021/04/08 11:34:45;;;;;;;11.75;2.22;;;8.90;83.10;;;;;;3558659;40;20053;-74
2021/04/08 11:37:17;;;;;;;7.88;1.40;;;8.40;83.00;;;;;;3556869;40;20042;-73
2021/04/08 11:39:45;;;;;;;11.00;1.75;;;8.20;83.70;;;;;;3557510;40;20044;-72
2021/04/08 11:42:21;;;;;;;15.30;3.28;;;7.90;84.10;;;;;;3556005;40;20045;-73
2021/04/08 11:44:48;;;;;;;13.27;2.70;;;7.70;84.90;;;;;;3559156;40;20719;-73
2021/04/08 11:47:19;;;;;;;13.95;2.92;;;7.50;85.50;;;;;;3558369;40;20100;-73
2021/04/08 11:49:48;;;;;;;12.50;2.58;;;7.50;86.80;;;;;;3561357;40;20390;-73
2021/04/08 11:52:17;;;;;;;8.65;1.88;;;7.60;86.50;;;;;;3553727;40;20042;-72
2021/04/08 11:55:02;;;;;;;13.90;1.77;;;7.70;86.20;;;;;;3556654;40;20041;-72
2021/04/08 11:57:28;;;;;;;8.30;1.42;;;7.90;86.00;;;;;;3562461;40;20100;-73
2021/04/08 12:00:26;;;;;;;6.25;1.70;;;8.20;86.00;;;;;;3553505;40;20044;-73
2021/04/08 12:02:51;;;;;;;12.52;2.63;;;8.50;84.10;;;;;;3554444;40;20052;-72
2021/04/08 12:05:17;;;;;;;8.88;2.13;;;8.90;85.30;;;;;;3555098;40;20092;-73
2021/04/08 12:07:45;;;;;;;6.68;1.52;;;9.40;82.80;;;;;;3554351;40;20494;-74
2021/04/08 12:10:28;;;;;;;9.32;1.85;;;9.00;80.30;;;;;;3555174;40;20106;-73
2021/04/08 12:12:58;;;;;;;11.02;1.90;;;8.40;83.70;;;;;;3553208;40;20042;-73
2021/04/08 12:15:48;;;;;;;3.85;1.00;;;7.80;88.40;;;;;;3555230;40;20130;-73
2021/04/08 12:18:19;;;;;;;11.93;1.75;;;7.60;87.40;;;;;;3555631;40;20096;-73
2021/04/08 12:20:48;;;;;;;13.63;1.80;;;7.40;86.70;;;;;;3558391;40;20041;-72
2021/04/08 12:23:16;;;;;;;10.10;1.67;;;7.20;88.90;;;;;;3559235;40;20078;-73
2021/04/08 12:25:45;;;;;;;15.77;2.42;;;7.20;90.10;;;;;;3557666;40;20057;-73
2021/04/08 12:28:11;;;;;;;16.67;1.92;;;7.10;90.80;;;;;;3554269;40;20102;-73
2021/04/08 12:30:45;;;;;;;14.93;2.10;;;7.20;91.10;;;;;;3549986;40;20038;-73
2021/04/08 12:33:15;;;;;;;7.72;1.60;;;7.20;90.80;;;;;;3540402;40;20038;-73
2021/04/08 12:35:42;;;;;;;9.05;1.60;;;7.20;90.90;;;;;;3547725;40;20671;-72
2021/04/08 12:38:08;;;;;;;10.55;1.70;;;7.20;91.50;;;;;;3552982;40;20068;-75
2021/04/08 12:40:34;;;;;;;9.13;1.55;;;7.50;91.20;;;;;;3551642;40;20394;-73
2021/04/08 12:42:59;;;;;;;9.85;1.40;;;7.80;89.30;;;;;;3549264;40;20644;-73
2021/04/08 12:45:25;;;;;;;6.80;1.63;;;8.10;89.10;;;;;;3552692;40;20136;-73
2021/04/08 12:47:51;;;;;;;7.72;1.63;;;8.50;88.20;;;;;;3555724;40;20752;-73
2021/04/08 12:50:16;;;;;;;8.52;1.40;;;9.10;83.80;;;;;;3553485;40;20159;-73
2021/04/08 12:52:42;;;;;;;7.97;1.48;;;9.90;82.90;;;;;;3554058;40;20113;-73
2021/04/08 12:55:08;;;;;;;7.75;1.70;;;10.30;83.00;;;;;;3555695;40;20126;-73
2021/04/08 12:57:35;;;;;;;8.73;2.15;;;9.70;83.60;;;;;;3553350;40;20042;-72